createdAt,value
2019-05-25T00:00:41.228Z,13.85
2019-05-25T00:03:12.275Z,13.14
2019-05-25T00:05:43.256Z,13.31
2019-05-25T00:08:14.517Z,13.57
2019-05-25T00:10:45.702Z,13.45
2019-05-25T00:13:16.772Z,13.29
2019-05-25T00:15:47.843Z,13.59
2019-05-25T00:18:19.126Z,13.40
2019-05-25T00:20:50.180Z,13.42
2019-05-25T00:23:21.166Z,13.26
2019-05-25T00:25:52.360Z,13.51
2019-05-25T00:28:24.288Z,13.32
2019-05-25T00:30:55.412Z,13.28
2019-05-25T00:33:26.757Z,13.47
2019-05-25T00:35:57.858Z,13.38
2019-05-25T00:38:29.032Z,13.14
2019-05-25T00:41:00.347Z,13.18
2019-05-25T00:43:31.709Z,13.24
2019-05-25T00:46:03.015Z,13.26
2019-05-25T00:48:34.044Z,13.18
2019-05-25T00:51:06.228Z,13.11
2019-05-25T00:53:37.248Z,13.05
2019-05-25T00:56:08.277Z,13.14
2019-05-25T00:58:40.227Z,13.17
2019-05-25T01:01:12.326Z,13.17
2019-05-25T01:03:43.613Z,13.33
2019-05-25T01:06:14.632Z,13.29
2019-05-25T01:08:46.558Z,13.25
2019-05-25T01:11:17.599Z,13.25
2019-05-25T01:13:48.594Z,12.86
2019-05-25T01:16:19.803Z,12.64
2019-05-25T01:18:50.784Z,12.86
2019-05-25T01:21:22.034Z,12.80
2019-05-25T01:23:54.079Z,12.79
2019-05-25T01:26:28.140Z,12.92
2019-05-25T01:28:59.113Z,12.75
2019-05-25T01:31:30.158Z,12.71
2019-05-25T01:34:02.856Z,12.75
2019-05-25T01:36:33.957Z,12.61
2019-05-25T01:39:07.503Z,12.75
2019-05-25T01:41:38.846Z,12.81
2019-05-25T01:44:10.165Z,12.71
2019-05-25T01:46:41.419Z,12.62
2019-05-25T01:49:12.773Z,12.54
2019-05-25T01:51:43.776Z,12.42
2019-05-25T01:54:15.073Z,12.53
2019-05-25T01:56:46.377Z,12.57
2019-05-25T01:59:17.689Z,12.39
2019-05-25T02:01:48.673Z,12.51
2019-05-25T02:04:19.810Z,12.60
2019-05-25T02:06:50.831Z,12.55
2019-05-25T02:09:22.702Z,12.29
2019-05-25T02:11:54.078Z,12.35
2019-05-25T02:14:25.131Z,12.40
2019-05-25T02:16:56.141Z,12.21
2019-05-25T02:19:27.760Z,12.21
2019-05-25T02:21:59.081Z,12.51
2019-05-25T02:24:30.498Z,12.35
2019-05-25T02:27:02.014Z,12.12
2019-05-25T02:29:33.212Z,12.22
2019-05-25T02:32:04.578Z,12.18
2019-05-25T02:34:36.396Z,12.26
2019-05-25T02:37:07.451Z,12.12
2019-05-25T02:39:39.524Z,12.15
2019-05-25T02:42:10.828Z,12.30
2019-05-25T02:44:42.078Z,12.37
2019-05-25T02:47:13.336Z,12.37
2019-05-25T02:49:44.944Z,12.55
2019-05-25T02:52:16.009Z,12.61
2019-05-25T02:54:47.386Z,12.47
2019-05-25T02:57:18.751Z,12.40
2019-05-25T02:59:49.995Z,12.49
2019-05-25T03:02:22.389Z,12.33
2019-05-25T03:04:53.873Z,12.33
2019-05-25T03:07:25.043Z,12.44
2019-05-25T03:09:56.740Z,12.27
2019-05-25T03:12:27.905Z,12.30
2019-05-25T03:14:59.048Z,12.54
2019-05-25T03:17:30.121Z,12.45
2019-05-25T03:20:01.997Z,12.25
2019-05-25T03:22:33.176Z,12.44
2019-05-25T03:25:06.046Z,12.35
2019-05-25T03:27:38.719Z,12.27
2019-05-25T03:30:10.077Z,12.20
2019-05-25T03:32:41.126Z,12.34
2019-05-25T03:35:12.262Z,12.19
2019-05-25T03:37:43.281Z,12.24
2019-05-25T03:40:14.355Z,12.43
2019-05-25T03:42:45.584Z,12.38
2019-05-25T03:45:17.180Z,12.23
2019-05-25T03:47:48.256Z,12.14
2019-05-25T03:50:19.689Z,12.32
2019-05-25T03:52:50.940Z,12.40
2019-05-25T03:55:22.128Z,12.56
2019-05-25T03:57:53.407Z,12.59
2019-05-25T04:00:33.069Z,12.69
2019-05-25T04:03:04.546Z,12.73
2019-05-25T04:05:38.293Z,12.50
2019-05-25T04:08:09.361Z,12.51
2019-05-25T04:10:40.413Z,12.57
2019-05-25T04:13:11.896Z,12.72
2019-05-25T04:15:42.925Z,12.65
2019-05-25T04:18:13.902Z,12.70
2019-05-25T04:20:44.990Z,12.60
2019-05-25T04:23:16.026Z,12.43
2019-05-25T04:25:47.785Z,12.57
2019-05-25T04:28:18.813Z,12.47
2019-05-25T04:30:49.857Z,12.77
2019-05-25T04:33:21.238Z,12.64
2019-05-25T04:35:53.257Z,12.73
2019-05-25T04:38:24.235Z,12.75
2019-05-25T04:40:55.360Z,12.80
2019-05-25T04:43:26.388Z,12.74
2019-05-25T04:45:58.235Z,12.89
2019-05-25T04:48:29.278Z,12.52
2019-05-25T04:51:00.297Z,12.50
2019-05-25T04:53:31.617Z,12.49
2019-05-25T04:56:03.004Z,12.74
2019-05-25T04:58:33.985Z,12.72
2019-05-25T05:01:05.151Z,12.78
2019-05-25T05:03:36.457Z,12.64
2019-05-25T05:06:08.589Z,12.91
2019-05-25T05:08:39.577Z,13.03
2019-05-25T05:11:10.879Z,12.86
2019-05-25T05:13:41.882Z,12.73
2019-05-25T05:16:13.271Z,12.61
2019-05-25T05:18:44.300Z,12.59
2019-05-25T05:21:15.428Z,12.58
2019-05-25T05:23:46.492Z,12.82
2019-05-25T05:26:17.501Z,12.90
2019-05-25T05:28:49.278Z,12.90
2019-05-25T05:31:23.664Z,12.74
2019-05-25T05:33:53.600Z,12.69
2019-05-25T05:36:25.397Z,12.86
2019-05-25T05:39:00.252Z,13.04
2019-05-25T05:41:32.451Z,12.79
2019-05-25T05:44:05.075Z,12.89
2019-05-25T05:46:37.737Z,12.95
2019-05-25T05:49:10.461Z,12.94
2019-05-25T05:51:41.661Z,12.91
2019-05-25T05:54:12.628Z,12.97
2019-05-25T05:56:43.810Z,12.90
2019-05-25T05:59:15.044Z,13.05
2019-05-25T06:01:46.637Z,12.93
2019-05-25T06:04:18.085Z,12.88
2019-05-25T06:06:49.428Z,13.14
2019-05-25T06:09:21.167Z,13.06
2019-05-25T06:11:52.177Z,13.14
2019-05-25T06:14:23.529Z,13.06
2019-05-25T06:16:54.572Z,13.15
2019-05-25T06:19:25.495Z,13.01
2019-05-25T06:21:56.780Z,12.93
2019-05-25T06:24:28.762Z,12.92
2019-05-25T06:26:59.807Z,12.98
2019-05-25T06:29:30.829Z,13.01
2019-05-25T06:32:02.075Z,13.11
2019-05-25T06:34:33.675Z,12.77
2019-05-25T06:37:04.874Z,13.01
2019-05-25T06:39:36.995Z,12.80
2019-05-25T06:42:08.052Z,12.81
2019-05-25T06:44:39.049Z,12.77
2019-05-25T06:47:10.349Z,12.96
2019-05-25T06:49:42.406Z,12.79
2019-05-25T06:52:13.482Z,12.66
2019-05-25T06:54:45.443Z,12.65
2019-05-25T06:57:16.700Z,12.85
2019-05-25T06:59:47.691Z,13.04
2019-05-25T07:02:22.451Z,13.10
2019-05-25T07:04:52.029Z,12.95
2019-05-25T07:07:23.254Z,13.15
2019-05-25T07:09:54.536Z,13.10
2019-05-25T07:12:26.222Z,13.15
2019-05-25T07:14:57.626Z,13.38
2019-05-25T07:17:28.625Z,13.26
2019-05-25T07:20:00.122Z,13.16
2019-05-25T07:22:31.404Z,13.41
2019-05-25T07:25:02.689Z,13.62
2019-05-25T07:27:34.242Z,13.85
2019-05-25T07:30:05.837Z,13.75
2019-05-25T07:32:38.222Z,13.64
2019-05-25T07:35:09.653Z,13.59
2019-05-25T07:37:40.759Z,13.42
2019-05-25T07:40:12.102Z,13.14
2019-05-25T07:42:43.042Z,13.35
2019-05-25T07:45:14.673Z,13.22
2019-05-25T07:47:45.713Z,13.26
2019-05-25T07:50:17.147Z,13.30
2019-05-25T07:52:48.191Z,13.80
2019-05-25T07:55:19.595Z,13.48
2019-05-25T07:57:50.563Z,13.43
2019-05-25T08:00:21.791Z,13.36
2019-05-25T08:02:53.559Z,13.20
2019-05-25T08:05:24.574Z,13.47
2019-05-25T08:07:55.957Z,13.41
2019-05-25T08:10:27.052Z,13.54
2019-05-25T08:12:58.068Z,13.52
2019-05-25T08:15:29.216Z,13.56
2019-05-25T08:18:00.445Z,13.56
2019-05-25T08:20:32.385Z,13.67
2019-05-25T08:23:03.487Z,13.70
2019-05-25T08:25:34.816Z,13.30
2019-05-25T08:28:07.239Z,13.53
2019-05-25T08:30:38.668Z,13.89
2019-05-25T08:33:09.817Z,13.96
2019-05-25T08:35:41.205Z,13.78
2019-05-25T08:38:12.143Z,14.05
2019-05-25T08:40:43.483Z,13.91
2019-05-25T08:43:14.512Z,14.03
2019-05-25T08:45:45.551Z,13.89
2019-05-25T08:48:16.903Z,14.26
2019-05-25T08:50:48.369Z,13.90
2019-05-25T08:53:31.150Z,13.93
2019-05-25T08:55:52.250Z,13.81
2019-05-25T08:58:23.331Z,13.76
2019-05-25T09:00:54.413Z,13.97
2019-05-25T09:03:25.610Z,13.39
2019-05-25T09:05:56.662Z,13.70
2019-05-25T09:08:28.681Z,13.68
2019-05-25T09:11:00.299Z,13.81
2019-05-25T09:13:31.425Z,13.59
2019-05-25T09:16:02.512Z,14.20
2019-05-25T09:18:33.560Z,14.34
2019-05-25T09:21:05.247Z,14.18
2019-05-25T09:23:36.747Z,14.67
2019-05-25T09:26:07.714Z,14.70
2019-05-25T09:28:39.617Z,14.55
2019-05-25T09:31:10.795Z,14.60
2019-05-25T09:33:42.271Z,14.45
2019-05-25T09:36:14.729Z,14.50
2019-05-25T09:38:46.834Z,14.29
2019-05-25T09:41:20.621Z,14.92
2019-05-25T09:43:51.942Z,14.82
2019-05-25T09:46:22.940Z,14.63
2019-05-25T09:48:54.114Z,14.85
2019-05-25T09:51:25.146Z,14.83
2019-05-25T09:53:56.511Z,15.00
2019-05-25T09:56:27.598Z,15.23
2019-05-25T09:58:58.635Z,14.90
2019-05-25T10:01:29.676Z,14.86
2019-05-25T10:04:00.999Z,15.55
2019-05-25T10:06:32.099Z,14.99
2019-05-25T10:09:05.414Z,15.64
2019-05-25T10:11:36.991Z,15.90
2019-05-25T10:14:08.808Z,15.59
2019-05-25T10:16:40.504Z,15.56
2019-05-25T10:19:12.295Z,15.78
2019-05-25T10:21:43.332Z,15.61
2019-05-25T10:24:14.700Z,15.43
2019-05-25T10:26:46.128Z,15.52
2019-05-25T10:29:17.752Z,15.08
2019-05-25T10:31:49.220Z,15.23
2019-05-25T10:34:20.735Z,14.91
2019-05-25T10:36:51.882Z,15.34
2019-05-25T10:39:22.867Z,14.94
2019-05-25T10:41:54.191Z,15.07
2019-05-25T10:44:25.947Z,15.40
2019-05-25T10:46:56.973Z,15.10
2019-05-25T10:49:28.970Z,15.09
2019-05-25T10:52:00.269Z,15.40
2019-05-25T10:54:32.247Z,15.25
2019-05-25T10:57:03.406Z,15.18
2019-05-25T10:59:34.737Z,15.48
2019-05-25T11:02:05.963Z,15.76
2019-05-25T11:04:37.296Z,15.71
2019-05-25T11:07:08.373Z,16.13
2019-05-25T11:09:40.155Z,16.48
2019-05-25T11:12:11.364Z,16.36
2019-05-25T11:14:42.711Z,16.25
2019-05-25T11:17:13.724Z,16.25
2019-05-25T11:19:45.317Z,16.14
2019-05-25T11:22:16.345Z,16.06
2019-05-25T11:24:47.642Z,16.31
2019-05-25T11:27:19.359Z,15.73
2019-05-25T11:29:50.405Z,15.75
2019-05-25T11:32:21.377Z,15.68
2019-05-25T11:34:53.712Z,15.77
2019-05-25T11:37:24.694Z,15.89
2019-05-25T11:39:55.781Z,15.93
2019-05-25T11:42:27.201Z,16.11
2019-05-25T11:44:58.149Z,15.94
2019-05-25T11:47:29.517Z,16.40
2019-05-25T11:50:00.591Z,16.04
2019-05-25T11:52:32.004Z,16.34
2019-05-25T11:55:03.017Z,16.52
2019-05-25T11:57:34.322Z,16.12
2019-05-25T12:00:07.167Z,16.66
2019-05-25T12:02:38.207Z,16.39
2019-05-25T12:05:09.557Z,15.99
2019-05-25T12:07:43.736Z,16.20
2019-05-25T12:10:13.694Z,16.75
2019-05-25T12:12:45.003Z,16.27
2019-05-25T12:15:17.162Z,16.10
2019-05-25T12:17:48.504Z,16.44
2019-05-25T12:20:19.987Z,16.20
2019-05-25T12:22:52.018Z,16.20
2019-05-25T12:25:23.062Z,15.75
2019-05-25T12:27:54.039Z,15.79
2019-05-25T12:30:39.740Z,15.78
2019-05-25T12:32:58.310Z,15.74
2019-05-25T12:35:29.327Z,15.75
2019-05-25T12:38:00.821Z,15.85
2019-05-25T12:40:32.313Z,15.67
2019-05-25T12:43:03.385Z,15.74
2019-05-25T12:45:34.674Z,15.50
2019-05-25T12:48:05.759Z,15.77
2019-05-25T12:50:36.781Z,15.76
2019-05-25T12:53:08.925Z,15.92
2019-05-25T12:55:41.243Z,16.31
2019-05-25T12:58:13.330Z,16.49
2019-05-25T13:00:55.597Z,17.02
2019-05-25T13:03:17.694Z,16.43
2019-05-25T13:05:48.678Z,16.22
2019-05-25T13:08:19.805Z,15.78
2019-05-25T13:10:50.864Z,16.67
2019-05-25T13:13:21.915Z,16.70
2019-05-25T13:15:52.953Z,16.22
2019-05-25T13:18:23.890Z,16.17
2019-05-25T13:20:55.221Z,16.38
2019-05-25T13:23:26.249Z,16.45
2019-05-25T13:25:57.229Z,16.61
2019-05-25T13:28:28.200Z,16.52
2019-05-25T13:31:11.438Z,16.69
2019-05-25T13:33:32.116Z,16.62
2019-05-25T13:36:03.100Z,16.24
2019-05-25T13:38:34.053Z,16.17
2019-05-25T13:41:05.199Z,16.14
2019-05-25T13:43:36.375Z,15.74
2019-05-25T13:46:07.395Z,16.23
2019-05-25T13:48:38.748Z,16.41
2019-05-25T13:51:09.826Z,16.55
2019-05-25T13:53:41.165Z,15.74
2019-05-25T13:56:12.209Z,15.74
2019-05-25T13:58:43.169Z,15.76
2019-05-25T14:01:27.425Z,16.35
2019-05-25T14:03:47.300Z,16.08
2019-05-25T14:06:19.848Z,16.32
2019-05-25T14:08:51.249Z,16.06
2019-05-25T14:11:22.563Z,16.15
2019-05-25T14:13:53.771Z,15.99
2019-05-25T14:16:25.284Z,16.08
2019-05-25T14:18:56.217Z,16.36
2019-05-25T14:21:27.313Z,16.35
2019-05-25T14:23:58.277Z,16.25
2019-05-25T14:26:29.206Z,16.23
2019-05-25T14:29:00.158Z,16.17
2019-05-25T14:31:44.437Z,16.14
2019-05-25T14:34:03.774Z,16.24
2019-05-25T14:36:34.790Z,15.77
2019-05-25T14:39:07.858Z,16.06
2019-05-25T14:41:38.923Z,16.16
2019-05-25T14:44:10.136Z,15.91
2019-05-25T14:46:41.385Z,15.94
2019-05-25T14:49:12.376Z,15.93
2019-05-25T14:51:43.804Z,16.29
2019-05-25T14:54:16.034Z,15.71
2019-05-25T14:56:47.245Z,15.54
2019-05-25T14:59:18.184Z,15.76
2019-05-25T15:02:01.855Z,16.01
2019-05-25T15:04:22.490Z,15.79
2019-05-25T15:06:53.960Z,16.13
2019-05-25T15:09:25.170Z,16.45
2019-05-25T15:11:56.152Z,15.84
2019-05-25T15:14:27.383Z,16.03
2019-05-25T15:16:58.419Z,15.69
2019-05-25T15:19:29.409Z,15.90
2019-05-25T15:22:00.589Z,15.89
2019-05-25T15:24:31.811Z,16.16
2019-05-25T15:27:02.921Z,15.87
2019-05-25T15:29:34.041Z,15.71
2019-05-25T15:32:18.730Z,15.53
2019-05-25T15:34:38.234Z,15.63
2019-05-25T15:37:09.481Z,15.83
2019-05-25T15:39:40.460Z,15.72
2019-05-25T15:42:11.663Z,15.39
2019-05-25T15:44:42.667Z,15.50
2019-05-25T15:47:13.634Z,15.53
2019-05-25T15:49:44.645Z,15.78
2019-05-25T15:52:15.945Z,15.94
2019-05-25T15:54:47.300Z,15.83
2019-05-25T15:57:18.391Z,15.65
2019-05-25T15:59:49.609Z,15.65
2019-05-25T16:02:35.768Z,15.50
2019-05-25T16:04:53.273Z,15.42
2019-05-25T16:07:24.243Z,15.50
2019-05-25T16:09:55.527Z,15.47
2019-05-25T16:12:26.872Z,15.41
2019-05-25T16:14:58.104Z,15.32
2019-05-25T16:17:29.341Z,15.41
2019-05-25T16:20:00.410Z,15.41
2019-05-25T16:22:31.875Z,15.46
2019-05-25T16:25:03.061Z,15.52
2019-05-25T16:27:34.287Z,15.59
2019-05-25T16:30:05.678Z,15.42
2019-05-25T16:33:07.174Z,15.61
2019-05-25T16:35:10.067Z,15.83
2019-05-25T16:37:41.701Z,15.70
2019-05-25T16:40:12.859Z,15.61
2019-05-25T16:42:43.977Z,15.51
2019-05-25T16:45:15.215Z,15.48
2019-05-25T16:47:46.586Z,15.50
2019-05-25T16:50:17.681Z,15.41
2019-05-25T16:52:50.142Z,15.46
2019-05-25T16:55:21.534Z,15.61
2019-05-25T16:57:52.841Z,15.63
2019-05-25T17:00:28.055Z,15.83
2019-05-25T17:02:59.801Z,15.99
2019-05-25T17:05:31.059Z,15.78
2019-05-25T17:08:02.126Z,15.73
2019-05-25T17:10:33.203Z,15.85
2019-05-25T17:13:04.294Z,15.82
2019-05-25T17:15:35.506Z,15.93
2019-05-25T17:18:06.550Z,15.73
2019-05-25T17:20:37.758Z,15.61
2019-05-25T17:23:09.800Z,15.78
2019-05-25T17:25:40.735Z,15.78
2019-05-25T17:28:12.832Z,15.77
2019-05-25T17:30:45.154Z,15.80
2019-05-25T17:33:16.185Z,15.60
2019-05-25T17:35:47.352Z,15.65
2019-05-25T17:38:18.872Z,15.67
2019-05-25T17:40:50.449Z,15.76
2019-05-25T17:43:21.593Z,15.62
2019-05-25T17:45:52.545Z,15.72
2019-05-25T17:48:24.162Z,15.59
2019-05-25T17:50:55.321Z,15.47
2019-05-25T17:53:26.567Z,15.83
2019-05-25T17:55:57.698Z,15.78
2019-05-25T17:58:28.896Z,15.58
2019-05-25T18:01:00.855Z,15.64
2019-05-25T18:03:31.909Z,15.68
2019-05-25T18:06:03.305Z,15.57
2019-05-25T18:08:34.685Z,15.61
2019-05-25T18:11:05.932Z,15.42
2019-05-25T18:13:37.839Z,15.55
2019-05-25T18:16:08.839Z,15.60
2019-05-25T18:18:40.097Z,15.33
2019-05-25T18:21:11.205Z,15.43
2019-05-25T18:23:42.479Z,15.45
2019-05-25T18:26:13.561Z,15.46
2019-05-25T18:28:44.567Z,15.64
2019-05-25T18:31:16.326Z,15.54
2019-05-25T18:33:47.342Z,15.62
2019-05-25T18:36:18.538Z,15.46
2019-05-25T18:38:50.951Z,15.41
2019-05-25T18:41:22.147Z,15.29
2019-05-25T18:43:53.509Z,15.42
2019-05-25T18:46:24.461Z,15.19
2019-05-25T18:48:55.730Z,15.32
2019-05-25T18:51:26.684Z,15.35
2019-05-25T18:53:58.293Z,15.31
2019-05-25T18:56:29.371Z,15.19
2019-05-25T18:59:00.388Z,15.27
2019-05-25T19:01:31.415Z,15.33
2019-05-25T19:04:03.081Z,15.21
2019-05-25T19:06:34.370Z,15.30
2019-05-25T19:09:07.895Z,15.35
2019-05-25T19:11:39.165Z,15.39
2019-05-25T19:14:10.395Z,15.28
2019-05-25T19:16:41.434Z,15.19
2019-05-25T19:19:12.414Z,15.19
2019-05-25T19:21:43.428Z,15.11
2019-05-25T19:24:14.483Z,15.10
2019-05-25T19:26:45.523Z,15.12
2019-05-25T19:29:16.546Z,15.18
2019-05-25T19:31:47.534Z,15.30
2019-05-25T19:34:18.529Z,15.33
2019-05-25T19:36:49.641Z,15.32
2019-05-25T19:39:21.615Z,15.13
2019-05-25T19:41:52.786Z,15.08
2019-05-25T19:44:23.762Z,15.17
2019-05-25T19:46:54.716Z,15.18
2019-05-25T19:49:25.729Z,15.07
2019-05-25T19:51:56.958Z,15.21
2019-05-25T19:54:32.055Z,15.00
2019-05-25T19:57:03.079Z,14.98
2019-05-25T19:59:34.125Z,15.12
2019-05-25T20:02:05.526Z,15.07
2019-05-25T20:04:36.817Z,15.24
2019-05-25T20:07:07.865Z,15.07
2019-05-25T20:09:39.129Z,15.05
2019-05-25T20:12:10.488Z,15.07
2019-05-25T20:14:41.610Z,15.09
2019-05-25T20:17:13.321Z,15.09
2019-05-25T20:19:44.905Z,15.07
2019-05-25T20:22:16.332Z,15.03
2019-05-25T20:24:47.388Z,15.04
2019-05-25T20:27:18.885Z,15.03
2019-05-25T20:29:49.864Z,15.03
2019-05-25T20:32:22.027Z,15.05
2019-05-25T20:34:53.269Z,15.12
2019-05-25T20:37:25.156Z,15.03
2019-05-25T20:39:56.730Z,14.93
2019-05-25T20:42:27.713Z,14.86
2019-05-25T20:44:59.193Z,14.86
2019-05-25T20:47:30.775Z,14.85
2019-05-25T20:50:02.843Z,14.71
2019-05-25T20:52:35.253Z,14.56
2019-05-25T20:55:06.383Z,14.57
2019-05-25T20:57:37.452Z,14.55
2019-05-25T21:00:08.795Z,14.76
2019-05-25T21:02:39.931Z,14.65
2019-05-25T21:05:11.252Z,14.53
2019-05-25T21:07:42.469Z,14.65
2019-05-25T21:10:14.168Z,14.39
2019-05-25T21:12:45.517Z,14.55
2019-05-25T21:15:17.277Z,14.27
2019-05-25T21:17:48.804Z,14.19
2019-05-25T21:20:19.960Z,14.24
2019-05-25T21:22:50.929Z,14.12
2019-05-25T21:25:23.465Z,14.04
2019-05-25T21:27:55.006Z,13.85
2019-05-25T21:30:26.387Z,13.95
2019-05-25T21:32:57.755Z,13.79
2019-05-25T21:35:28.834Z,13.78
2019-05-25T21:37:59.876Z,13.85
2019-05-25T21:40:31.059Z,13.62
2019-05-25T21:43:02.389Z,13.78
2019-05-25T21:45:33.471Z,13.60
2019-05-25T21:48:04.911Z,13.69
2019-05-25T21:50:36.384Z,13.76
2019-05-25T21:53:11.007Z,13.63
2019-05-25T21:55:40.351Z,13.63
2019-05-25T21:58:11.833Z,13.65
2019-05-25T22:00:43.425Z,13.82
2019-05-25T22:03:14.520Z,13.59
2019-05-25T22:05:45.783Z,13.66
2019-05-25T22:08:16.986Z,13.83
2019-05-25T22:10:48.457Z,13.54
2019-05-25T22:13:27.723Z,13.24
2019-05-25T22:15:53.585Z,13.44
2019-05-25T22:18:25.015Z,13.23
2019-05-25T22:20:56.069Z,13.10
2019-05-25T22:23:27.197Z,13.23
2019-05-25T22:25:58.502Z,13.17
2019-05-25T22:28:43.725Z,12.98
2019-05-25T22:31:02.974Z,12.98
2019-05-25T22:33:33.906Z,13.22
2019-05-25T22:36:04.942Z,13.10
2019-05-25T22:38:36.142Z,13.09
2019-05-25T22:41:07.112Z,13.08
2019-05-25T22:43:38.051Z,13.17
2019-05-25T22:46:09.032Z,13.01
2019-05-25T22:48:40.617Z,12.89
2019-05-25T22:51:11.831Z,12.97
2019-05-25T22:53:43.105Z,13.11
2019-05-25T22:56:14.343Z,12.85
2019-05-25T22:58:45.297Z,13.08
2019-05-25T23:01:16.643Z,12.97
2019-05-25T23:03:47.888Z,12.88
2019-05-25T23:06:18.924Z,12.70
2019-05-25T23:08:49.909Z,12.84
2019-05-25T23:13:57.569Z,12.71
2019-05-25T23:16:28.670Z,12.71
2019-05-25T23:18:59.621Z,12.82
2019-05-25T23:21:30.939Z,12.46
2019-05-25T23:24:02.449Z,12.35
2019-05-25T23:26:33.432Z,12.27
2019-05-25T23:29:05.593Z,12.28
2019-05-25T23:31:36.686Z,11.95
2019-05-25T23:34:07.726Z,12.27
2019-05-25T23:36:38.689Z,12.48
2019-05-25T23:39:09.912Z,12.34
2019-05-25T23:41:41.379Z,12.27
2019-05-25T23:44:14.717Z,12.31
2019-05-25T23:46:45.783Z,12.44
2019-05-25T23:49:18.065Z,12.25
2019-05-25T23:51:49.100Z,12.26
2019-05-25T23:54:20.414Z,11.97
2019-05-25T23:56:51.452Z,11.98
2019-05-25T23:59:22.512Z,12.00
